Time;durP1;ratioP1;P1;durP2;ratioP2;P2;SDS_P1;SDS_P2;PMS_P1;PMS_P2;Temp;Humidity;BMP_temperature;BMP_pressure;BME280_temperature;BME280_humidity;BME280_pressure;Samples;Min_cycle;Max_cycle;Signal;HPM_P1;HPM_P2
2020/12/12 00:00:31;;;;;;;22.40;13.33;;;;;;;;;;748368;184;919603;-66
2020/12/12 00:02:57;;;;;;;22.93;15.50;;;;;;;;;;737052;184;918942;-66
2020/12/12 00:05:23;;;;;;;23.40;14.53;;;;;;;;;;747188;185;919121;-67
2020/12/12 00:07:49;;;;;;;23.20;13.50;;;;;;;;;;743934;184;919070;-64
2020/12/12 00:10:15;;;;;;;22.57;15.00;;;;;;;;;;739658;185;918542;-66
2020/12/12 00:12:42;;;;;;;21.57;13.93;;;;;;;;;;745112;184;919339;-67
2020/12/12 00:15:07;;;;;;;23.20;14.90;;;;;;;;;;741666;185;923172;-66
2020/12/12 00:17:33;;;;;;;22.77;14.00;;;;;;;;;;753426;184;918470;-65
2020/12/12 00:19:59;;;;;;;23.80;14.60;;;;;;;;;;745317;184;919471;-66
2020/12/12 00:22:26;;;;;;;22.00;13.77;;;;;;;;;;744932;184;919267;-66
2020/12/12 00:24:52;;;;;;;21.13;14.43;;;;;;;;;;743418;184;918641;-66
2020/12/12 00:27:21;;;;;;;27.47;15.70;;;;;;;;;;746126;184;919630;-66
2020/12/12 00:29:44;;;;;;;20.73;12.63;;;;;;;;;;737108;188;919560;-67
2020/12/12 00:32:10;;;;;;;20.52;13.95;;;;;;;;;;745734;184;919239;-66
2020/12/12 00:34:36;;;;;;;21.70;12.80;;;;;;;;;;743180;184;919933;-65
2020/12/12 00:37:02;;;;;;;22.10;14.07;;;;;;;;;;749951;185;918929;-66
2020/12/12 00:39:28;;;;;;;28.50;16.50;;;;;;;;;;713686;184;3755189;-67
2020/12/12 00:41:54;;;;;;;22.90;13.50;;;;;;;;;;748140;185;919194;-66
2020/12/12 00:44:20;;;;;;;25.10;14.27;;;;;;;;;;749962;184;919241;-66
2020/12/12 00:46:46;;;;;;;22.07;15.10;;;;;;;;;;753739;184;919485;-67
2020/12/12 00:49:11;;;;;;;23.43;15.80;;;;;;;;;;746312;184;629752;-66
2020/12/12 00:51:38;;;;;;;22.58;14.73;;;;;;;;;;749051;184;918803;-65
2020/12/12 00:54:04;;;;;;;22.57;14.47;;;;;;;;;;746005;185;917736;-67
2020/12/12 00:56:30;;;;;;;26.50;14.97;;;;;;;;;;740153;184;919234;-66
2020/12/12 00:58:57;;;;;;;26.80;14.97;;;;;;;;;;736168;184;1021534;-66
2020/12/12 01:01:23;;;;;;;26.17;16.57;;;;;;;;;;744603;184;918837;-66
2020/12/12 01:03:50;;;;;;;29.87;17.20;;;;;;;;;;740703;184;928590;-67
2020/12/12 01:06:16;;;;;;;30.10;19.40;;;;;;;;;;743884;184;918011;-67
2020/12/12 01:08:42;;;;;;;32.00;17.83;;;;;;;;;;752839;184;918212;-66
2020/12/12 01:11:08;;;;;;;29.10;15.10;;;;;;;;;;746142;184;920855;-65
2020/12/12 01:13:34;;;;;;;29.87;18.17;;;;;;;;;;746104;184;919936;-65
2020/12/12 01:16:00;;;;;;;33.80;17.53;;;;;;;;;;736137;184;915475;-65
2020/12/12 01:18:26;;;;;;;25.62;15.63;;;;;;;;;;749835;185;910890;-67
2020/12/12 01:20:51;;;;;;;26.07;16.50;;;;;;;;;;743053;185;915988;-66
2020/12/12 01:23:17;;;;;;;20.83;14.37;;;;;;;;;;740428;184;916244;-64
2020/12/12 01:25:43;;;;;;;27.60;16.37;;;;;;;;;;742557;184;910451;-66
2020/12/12 01:28:09;;;;;;;38.30;16.20;;;;;;;;;;747468;185;919592;-65
2020/12/12 01:30:36;;;;;;;29.40;17.90;;;;;;;;;;739355;184;919915;-65
2020/12/12 01:33:02;;;;;;;27.90;15.63;;;;;;;;;;745241;183;919528;-66
2020/12/12 01:35:28;;;;;;;28.23;16.20;;;;;;;;;;735637;184;919231;-66
2020/12/12 01:37:53;;;;;;;30.60;17.33;;;;;;;;;;738049;184;919328;-66
2020/12/12 01:40:20;;;;;;;26.62;16.42;;;;;;;;;;744656;184;918336;-64
2020/12/12 01:42:46;;;;;;;25.90;16.33;;;;;;;;;;741049;185;919249;-66
2020/12/12 01:45:12;;;;;;;25.33;17.43;;;;;;;;;;741738;184;918821;-66
2020/12/12 01:47:38;;;;;;;30.27;17.95;;;;;;;;;;739152;184;919362;-65
2020/12/12 01:50:04;;;;;;;23.73;15.53;;;;;;;;;;746924;184;919054;-65
2020/12/12 01:52:30;;;;;;;28.67;16.70;;;;;;;;;;738741;184;930619;-66
2020/12/12 01:54:56;;;;;;;29.55;17.87;;;;;;;;;;742498;183;918935;-66
2020/12/12 01:57:22;;;;;;;23.40;15.87;;;;;;;;;;743193;183;926983;-67
2020/12/12 01:59:48;;;;;;;29.33;18.47;;;;;;;;;;742281;184;927961;-66
2020/12/12 02:02:15;;;;;;;29.50;17.93;;;;;;;;;;744356;184;919153;-66
2020/12/12 02:04:40;;;;;;;31.87;16.60;;;;;;;;;;752308;184;919124;-66
2020/12/12 02:07:06;;;;;;;30.97;17.17;;;;;;;;;;739895;184;889717;-66
2020/12/12 02:09:32;;;;;;;26.60;17.27;;;;;;;;;;745841;184;918295;-65
2020/12/12 02:11:57;;;;;;;28.60;17.63;;;;;;;;;;743288;184;919140;-66
2020/12/12 02:14:23;;;;;;;36.93;20.93;;;;;;;;;;757258;184;918541;-65
2020/12/12 02:16:50;;;;;;;32.38;17.40;;;;;;;;;;737343;184;919316;-66
2020/12/12 02:19:16;;;;;;;31.73;18.97;;;;;;;;;;743064;184;919923;-67
2020/12/12 02:21:41;;;;;;;34.10;19.70;;;;;;;;;;748289;184;919262;-65
2020/12/12 02:24:07;;;;;;;34.27;19.23;;;;;;;;;;741140;184;919747;-67
2020/12/12 02:26:33;;;;;;;36.17;18.03;;;;;;;;;;738866;184;919443;-66
2020/12/12 02:28:59;;;;;;;31.83;18.30;;;;;;;;;;743402;184;915754;-65
2020/12/12 02:31:25;;;;;;;28.37;18.37;;;;;;;;;;743658;184;916130;-66
2020/12/12 02:33:51;;;;;;;32.77;18.50;;;;;;;;;;746942;185;919580;-66
2020/12/12 02:36:17;;;;;;;31.37;19.37;;;;;;;;;;741398;184;919157;-66
2020/12/12 02:38:43;;;;;;;34.50;20.53;;;;;;;;;;741955;187;919006;-66
2020/12/12 02:41:09;;;;;;;30.50;18.80;;;;;;;;;;739122;185;919055;-65
2020/12/12 02:43:35;;;;;;;30.00;18.40;;;;;;;;;;743322;184;920303;-65
2020/12/12 02:46:01;;;;;;;32.07;19.43;;;;;;;;;;740204;184;919402;-66
2020/12/12 02:48:27;;;;;;;28.50;18.60;;;;;;;;;;739788;184;918918;-66
2020/12/12 02:50:53;;;;;;;26.33;15.37;;;;;;;;;;741867;184;919020;-65
2020/12/12 02:53:20;;;;;;;25.90;15.47;;;;;;;;;;743077;184;918431;-65
2020/12/12 02:55:46;;;;;;;23.83;15.30;;;;;;;;;;743720;185;1697077;-65
2020/12/12 02:58:12;;;;;;;24.40;14.63;;;;;;;;;;739615;184;941732;-65
2020/12/12 03:00:38;;;;;;;23.33;13.30;;;;;;;;;;738787;184;918005;-65
2020/12/12 03:03:04;;;;;;;30.23;18.17;;;;;;;;;;747226;185;919991;-66
2020/12/12 03:05:30;;;;;;;27.47;14.97;;;;;;;;;;749245;184;918315;-66
2020/12/12 03:07:55;;;;;;;23.60;14.50;;;;;;;;;;748584;184;984493;-66
2020/12/12 03:10:21;;;;;;;23.30;15.00;;;;;;;;;;751383;184;916333;-66
2020/12/12 03:12:47;;;;;;;22.35;14.95;;;;;;;;;;743257;185;919897;-66
2020/12/12 03:15:13;;;;;;;22.65;15.27;;;;;;;;;;738277;185;1291849;-65
2020/12/12 03:17:39;;;;;;;27.83;14.53;;;;;;;;;;744996;185;919146;-66
2020/12/12 03:20:05;;;;;;;25.73;14.37;;;;;;;;;;742731;184;918996;-65
2020/12/12 03:22:31;;;;;;;23.57;15.30;;;;;;;;;;745670;184;919156;-66
2020/12/12 03:24:57;;;;;;;17.43;8.73;;;;;;;;;;741108;184;918843;-64
2020/12/12 03:27:23;;;;;;;20.87;13.03;;;;;;;;;;737739;187;919222;-66
2020/12/12 03:29:49;;;;;;;21.10;12.37;;;;;;;;;;741092;184;919039;-65
2020/12/12 03:32:15;;;;;;;26.47;14.23;;;;;;;;;;746811;184;919945;-64
2020/12/12 03:34:44;;;;;;;22.47;12.67;;;;;;;;;;743645;185;919507;-66
2020/12/12 03:37:07;;;;;;;19.83;13.30;;;;;;;;;;745033;184;1211481;-66
2020/12/12 03:39:33;;;;;;;22.73;13.57;;;;;;;;;;745573;184;929224;-65
2020/12/12 03:41:59;;;;;;;21.85;13.38;;;;;;;;;;744648;185;919008;-65
2020/12/12 03:44:24;;;;;;;17.93;11.27;;;;;;;;;;751324;184;1021319;-66
2020/12/12 03:46:50;;;;;;;28.43;13.53;;;;;;;;;;742936;184;919419;-65
2020/12/12 03:49:16;;;;;;;21.30;12.90;;;;;;;;;;745044;184;918080;-67
2020/12/12 03:51:42;;;;;;;18.53;11.90;;;;;;;;;;735739;184;918616;-66
2020/12/12 03:54:08;;;;;;;18.03;10.87;;;;;;;;;;743607;184;920304;-66
2020/12/12 03:56:34;;;;;;;23.30;12.00;;;;;;;;;;739766;184;918982;-66
2020/12/12 03:59:00;;;;;;;17.27;11.60;;;;;;;;;;744877;184;918994;-66
2020/12/12 04:01:26;;;;;;;17.50;11.60;;;;;;;;;;737986;184;919077;-65
2020/12/12 04:03:52;;;;;;;15.30;9.70;;;;;;;;;;741277;184;943690;-65
2020/12/12 04:06:18;;;;;;;20.10;10.93;;;;;;;;;;747448;184;918742;-66
2020/12/12 04:08:44;;;;;;;16.10;9.87;;;;;;;;;;744956;184;918034;-66
2020/12/12 04:11:10;;;;;;;18.70;10.83;;;;;;;;;;743566;184;918702;-66
2020/12/12 04:13:36;;;;;;;19.52;10.93;;;;;;;;;;749945;184;919912;-65
2020/12/12 04:16:02;;;;;;;16.87;11.20;;;;;;;;;;749902;184;919298;-66
2020/12/12 04:18:28;;;;;;;20.27;12.47;;;;;;;;;;741224;184;919194;-65
2020/12/12 04:20:53;;;;;;;19.03;11.40;;;;;;;;;;748000;184;931462;-66
2020/12/12 04:23:19;;;;;;;23.73;11.77;;;;;;;;;;725464;187;1134029;-65
2020/12/12 04:25:45;;;;;;;17.67;11.40;;;;;;;;;;749211;184;919203;-66
2020/12/12 04:28:11;;;;;;;19.90;11.10;;;;;;;;;;741002;184;919219;-64
2020/12/12 04:30:37;;;;;;;17.07;10.97;;;;;;;;;;743162;184;919443;-66
2020/12/12 04:33:03;;;;;;;20.17;13.40;;;;;;;;;;736431;184;1021419;-66
2020/12/12 04:35:29;;;;;;;19.80;11.20;;;;;;;;;;748145;184;919206;-66
2020/12/12 04:37:55;;;;;;;18.90;9.70;;;;;;;;;;742149;184;919179;-66
2020/12/12 04:40:21;;;;;;;19.90;10.77;;;;;;;;;;743375;185;919849;-65
2020/12/12 04:42:47;;;;;;;16.30;9.87;;;;;;;;;;741410;184;981843;-65
2020/12/12 04:45:12;;;;;;;17.80;10.03;;;;;;;;;;735946;185;918850;-64
2020/12/12 04:47:41;;;;;;;18.40;11.33;;;;;;;;;;731626;187;918973;-65
2020/12/12 04:50:07;;;;;;;20.13;11.37;;;;;;;;;;743908;183;918558;-64
2020/12/12 04:52:33;;;;;;;17.57;11.10;;;;;;;;;;747695;184;919176;-66
2020/12/12 04:54:59;;;;;;;23.63;11.50;;;;;;;;;;751148;184;946478;-64
2020/12/12 04:57:25;;;;;;;19.70;10.40;;;;;;;;;;739776;184;918921;-66
2020/12/12 04:59:51;;;;;;;18.25;10.40;;;;;;;;;;742534;184;918483;-66
2020/12/12 05:02:17;;;;;;;17.27;11.60;;;;;;;;;;744855;188;918705;-66
2020/12/12 05:04:42;;;;;;;14.33;8.60;;;;;;;;;;740188;184;1366968;-66
2020/12/12 05:07:08;;;;;;;14.03;9.07;;;;;;;;;;746422;184;920111;-66
2020/12/12 05:09:34;;;;;;;14.87;9.33;;;;;;;;;;738120;184;919607;-66
2020/12/12 05:12:00;;;;;;;16.17;10.00;;;;;;;;;;737069;185;918152;-66
2020/12/12 05:14:26;;;;;;;16.63;10.43;;;;;;;;;;746067;185;920882;-64
2020/12/12 05:16:54;;;;;;;17.33;10.43;;;;;;;;;;738495;184;919054;-65
2020/12/12 05:19:18;;;;;;;18.93;10.80;;;;;;;;;;740192;184;920123;-65
2020/12/12 05:21:46;;;;;;;18.13;10.53;;;;;;;;;;742732;185;919228;-66
2020/12/12 05:24:12;;;;;;;20.40;10.13;;;;;;;;;;740961;184;919567;-67
2020/12/12 05:26:38;;;;;;;16.17;10.60;;;;;;;;;;749074;184;918873;-65
2020/12/12 05:29:04;;;;;;;18.57;11.07;;;;;;;;;;746128;184;919175;-65
2020/12/12 05:31:29;;;;;;;17.55;9.65;;;;;;;;;;745294;184;1004767;-65
2020/12/12 05:33:55;;;;;;;16.23;10.10;;;;;;;;;;750278;184;997574;-66
2020/12/12 05:36:23;;;;;;;14.60;8.20;;;;;;;;;;747069;185;919580;-66
2020/12/12 05:38:49;;;;;;;13.37;8.57;;;;;;;;;;747488;184;919311;-65
2020/12/12 05:41:15;;;;;;;16.45;9.48;;;;;;;;;;740236;184;918918;-66
2020/12/12 05:43:41;;;;;;;16.03;9.40;;;;;;;;;;758025;184;906341;-66
2020/12/12 05:46:07;;;;;;;12.13;8.33;;;;;;;;;;746855;184;938403;-65
2020/12/12 05:48:33;;;;;;;11.60;8.40;;;;;;;;;;750021;184;629336;-66
2020/12/12 05:50:59;;;;;;;14.20;9.80;;;;;;;;;;743331;183;902810;-65
2020/12/12 05:53:25;;;;;;;16.27;11.10;;;;;;;;;;748932;184;920262;-64
2020/12/12 05:55:51;;;;;;;20.80;11.60;;;;;;;;;;739838;184;918430;-65
2020/12/12 05:58:17;;;;;;;20.67;13.70;;;;;;;;;;740542;184;918366;-65
2020/12/12 06:00:42;;;;;;;18.17;10.50;;;;;;;;;;721724;190;917978;-65
2020/12/12 06:03:10;;;;;;;18.57;10.43;;;;;;;;;;731028;185;919491;-64
2020/12/12 06:05:36;;;;;;;17.30;10.90;;;;;;;;;;749096;184;918765;-64
2020/12/12 06:08:02;;;;;;;23.30;13.00;;;;;;;;;;742386;184;918651;-65
2020/12/12 06:10:28;;;;;;;21.55;11.95;;;;;;;;;;749622;184;919142;-65
2020/12/12 06:12:57;;;;;;;21.40;12.40;;;;;;;;;;739080;184;918605;-65
2020/12/12 06:15:23;;;;;;;20.80;12.47;;;;;;;;;;740261;185;919462;-64
2020/12/12 06:18:03;;;;;;;26.47;13.83;;;;;;;;;;741498;185;918844;-65
2020/12/12 06:20:29;;;;;;;26.13;14.03;;;;;;;;;;733535;185;919161;-66
2020/12/12 06:22:55;;;;;;;29.83;14.97;;;;;;;;;;736496;184;919121;-66
2020/12/12 06:25:22;;;;;;;24.13;13.97;;;;;;;;;;741387;184;919089;-66
2020/12/12 06:27:48;;;;;;;28.40;16.10;;;;;;;;;;747087;184;920333;-66
2020/12/12 06:30:13;;;;;;;30.60;18.23;;;;;;;;;;741686;184;907710;-66
2020/12/12 06:32:39;;;;;;;26.30;13.87;;;;;;;;;;737249;184;915431;-66
2020/12/12 06:35:05;;;;;;;25.10;13.90;;;;;;;;;;749795;184;914781;-67
2020/12/12 06:37:32;;;;;;;31.13;14.93;;;;;;;;;;744632;184;919453;-67
2020/12/12 06:39:58;;;;;;;29.47;13.60;;;;;;;;;;752395;184;637369;-66
2020/12/12 06:42:40;;;;;;;27.63;17.53;;;;;;;;;;747228;185;926846;-66
2020/12/12 06:45:11;;;;;;;28.03;14.50;;;;;;;;;;745181;185;917482;-66
2020/12/12 06:47:37;;;;;;;24.23;14.63;;;;;;;;;;753167;185;920519;-65
2020/12/12 06:50:06;;;;;;;25.87;15.07;;;;;;;;;;750048;184;919018;-65
2020/12/12 06:52:32;;;;;;;27.83;15.30;;;;;;;;;;742111;184;919732;-65
2020/12/12 06:55:03;;;;;;;28.50;16.10;;;;;;;;;;753100;184;918884;-66
2020/12/12 06:57:28;;;;;;;35.87;15.30;;;;;;;;;;746309;184;919559;-66
2020/12/12 06:59:54;;;;;;;28.47;17.60;;;;;;;;;;740177;184;1232842;-66
2020/12/12 07:02:20;;;;;;;34.65;16.85;;;;;;;;;;745058;184;918268;-66
2020/12/12 07:04:47;;;;;;;26.27;15.60;;;;;;;;;;742603;184;919638;-65
2020/12/12 07:07:11;;;;;;;28.27;15.03;;;;;;;;;;749369;184;923064;-66
2020/12/12 07:09:37;;;;;;;27.53;15.23;;;;;;;;;;743370;184;921229;-65
2020/12/12 07:12:03;;;;;;;27.87;14.97;;;;;;;;;;747882;184;917424;-66
2020/12/12 07:14:29;;;;;;;30.33;15.20;;;;;;;;;;740019;184;916582;-66
2020/12/12 07:16:55;;;;;;;29.08;13.90;;;;;;;;;;746334;184;919443;-66
2020/12/12 07:19:30;;;;;;;27.93;15.63;;;;;;;;;;745346;184;1461597;-65
2020/12/12 07:21:56;;;;;;;28.10;14.80;;;;;;;;;;749330;185;919525;-65
2020/12/12 07:24:22;;;;;;;36.10;16.63;;;;;;;;;;745274;184;919426;-65
2020/12/12 07:26:48;;;;;;;29.73;15.90;;;;;;;;;;745180;184;918875;-65
2020/12/12 07:29:14;;;;;;;35.10;16.05;;;;;;;;;;744216;185;918561;-64
2020/12/12 07:31:40;;;;;;;32.67;16.20;;;;;;;;;;743542;184;918429;-65
2020/12/12 07:34:07;;;;;;;34.03;15.50;;;;;;;;;;745540;184;919281;-66
2020/12/12 07:36:33;;;;;;;27.97;16.40;;;;;;;;;;743500;185;919014;-66
2020/12/12 07:38:59;;;;;;;26.80;16.60;;;;;;;;;;742382;185;919053;-64
2020/12/12 07:41:25;;;;;;;28.67;16.03;;;;;;;;;;744586;184;918999;-65
2020/12/12 07:43:52;;;;;;;32.67;18.05;;;;;;;;;;749894;184;919211;-65
2020/12/12 07:46:18;;;;;;;34.10;18.17;;;;;;;;;;742258;184;917783;-65
2020/12/12 07:48:44;;;;;;;39.80;21.10;;;;;;;;;;747201;184;920688;-65
2020/12/12 07:51:12;;;;;;;34.50;19.37;;;;;;;;;;740985;184;920218;-64
2020/12/12 07:53:39;;;;;;;39.83;20.63;;;;;;;;;;748980;183;928797;-66
2020/12/12 07:56:05;;;;;;;37.77;20.70;;;;;;;;;;744839;184;919688;-66
2020/12/12 07:58:32;;;;;;;36.77;19.57;;;;;;;;;;746364;184;919134;-66
2020/12/12 08:00:58;;;;;;;38.15;18.17;;;;;;;;;;739600;184;918879;-65
2020/12/12 08:03:24;;;;;;;31.47;18.73;;;;;;;;;;748152;184;816066;-66
2020/12/12 08:05:50;;;;;;;37.83;19.00;;;;;;;;;;743336;184;994749;-65
2020/12/12 08:08:16;;;;;;;34.20;19.27;;;;;;;;;;745008;184;919387;-65
2020/12/12 08:10:43;;;;;;;44.53;20.00;;;;;;;;;;748476;184;919153;-66
2020/12/12 08:13:09;;;;;;;29.95;16.55;;;;;;;;;;746976;184;918764;-65
2020/12/12 08:15:45;;;;;;;30.47;17.47;;;;;;;;;;737652;185;918229;-66
2020/12/12 08:18:09;;;;;;;33.20;16.70;;;;;;;;;;738269;184;918341;-66
2020/12/12 08:20:35;;;;;;;27.10;16.57;;;;;;;;;;745877;185;918729;-65
2020/12/12 08:23:01;;;;;;;34.10;16.37;;;;;;;;;;742564;184;1028501;-65
2020/12/12 08:25:27;;;;;;;26.20;15.40;;;;;;;;;;743602;184;918425;-64
2020/12/12 08:27:53;;;;;;;32.73;17.07;;;;;;;;;;736423;184;2287531;-65
2020/12/12 08:30:19;;;;;;;32.47;17.60;;;;;;;;;;740127;184;918617;-65
2020/12/12 08:32:47;;;;;;;28.17;16.03;;;;;;;;;;734603;184;919055;-66
2020/12/12 08:35:13;;;;;;;28.90;16.43;;;;;;;;;;741199;184;919495;-66
2020/12/12 08:37:39;;;;;;;34.70;18.73;;;;;;;;;;744882;184;913891;-65
2020/12/12 08:40:05;;;;;;;30.77;16.40;;;;;;;;;;744292;184;920334;-65
2020/12/12 08:42:31;;;;;;;30.20;15.67;;;;;;;;;;741375;184;919147;-66
2020/12/12 08:44:57;;;;;;;32.37;16.73;;;;;;;;;;744365;184;918683;-66
2020/12/12 08:47:23;;;;;;;26.73;16.10;;;;;;;;;;738143;184;1572618;-66
2020/12/12 08:49:53;;;;;;;30.03;16.70;;;;;;;;;;745316;184;1022409;-67
2020/12/12 08:52:19;;;;;;;27.27;16.00;;;;;;;;;;745224;184;920502;-65
2020/12/12 08:54:45;;;;;;;30.13;15.40;;;;;;;;;;741595;184;928944;-64
2020/12/12 08:57:11;;;;;;;35.33;17.40;;;;;;;;;;737051;184;1022910;-66
2020/12/12 08:59:37;;;;;;;26.03;14.87;;;;;;;;;;741028;184;922540;-64
2020/12/12 09:02:03;;;;;;;25.50;16.50;;;;;;;;;;745010;184;920327;-66
2020/12/12 09:04:29;;;;;;;32.03;16.90;;;;;;;;;;741433;184;919244;-66
2020/12/12 09:06:56;;;;;;;27.27;16.33;;;;;;;;;;745660;183;918459;-64
2020/12/12 09:09:21;;;;;;;32.30;15.10;;;;;;;;;;747806;184;919157;-66
2020/12/12 09:11:48;;;;;;;28.70;16.37;;;;;;;;;;746432;184;914354;-65
2020/12/12 09:14:14;;;;;;;29.20;16.40;;;;;;;;;;736485;184;2226634;-66
2020/12/12 09:16:40;;;;;;;29.07;15.83;;;;;;;;;;744502;184;912688;-64
2020/12/12 09:19:06;;;;;;;30.00;15.70;;;;;;;;;;740690;187;918387;-65
2020/12/12 09:21:33;;;;;;;27.13;15.10;;;;;;;;;;742097;184;919249;-65
2020/12/12 09:23:59;;;;;;;28.03;14.60;;;;;;;;;;739187;184;918987;-64
2020/12/12 09:26:25;;;;;;;25.57;15.27;;;;;;;;;;750437;184;918529;-65
2020/12/12 09:28:51;;;;;;;25.73;15.00;;;;;;;;;;744161;184;918041;-65
2020/12/12 09:31:17;;;;;;;31.33;14.03;;;;;;;;;;744602;184;920290;-66
2020/12/12 09:33:44;;;;;;;26.60;13.83;;;;;;;;;;744901;184;919321;-66
2020/12/12 09:36:10;;;;;;;26.37;15.63;;;;;;;;;;734107;184;3362218;-64
2020/12/12 09:38:36;;;;;;;33.67;16.23;;;;;;;;;;744555;184;919978;-65
2020/12/12 09:41:02;;;;;;;35.00;15.67;;;;;;;;;;739716;184;919356;-65
2020/12/12 09:43:28;;;;;;;29.27;17.00;;;;;;;;;;747294;184;917226;-65
2020/12/12 09:45:54;;;;;;;26.50;14.27;;;;;;;;;;738029;184;1033705;-66
2020/12/12 09:48:20;;;;;;;31.03;15.77;;;;;;;;;;741857;184;919782;-65
2020/12/12 09:50:45;;;;;;;24.80;16.37;;;;;;;;;;744957;184;914422;-65
2020/12/12 09:53:11;;;;;;;28.17;16.30;;;;;;;;;;741833;184;914189;-65
2020/12/12 09:55:37;;;;;;;31.33;17.35;;;;;;;;;;737349;184;2262361;-66
2020/12/12 09:58:06;;;;;;;32.40;15.60;;;;;;;;;;750626;184;911913;-66
2020/12/12 10:00:32;;;;;;;25.10;15.47;;;;;;;;;;741879;184;912461;-64
2020/12/12 10:02:58;;;;;;;28.67;15.87;;;;;;;;;;742031;184;1014650;-65
2020/12/12 10:05:24;;;;;;;29.60;15.47;;;;;;;;;;740476;184;915896;-65
2020/12/12 10:07:50;;;;;;;28.05;14.55;;;;;;;;;;747652;184;911441;-65
2020/12/12 10:10:16;;;;;;;26.40;14.70;;;;;;;;;;741776;184;919595;-64
2020/12/12 10:12:42;;;;;;;23.77;14.75;;;;;;;;;;745613;184;915104;-64
2020/12/12 10:15:09;;;;;;;27.53;14.60;;;;;;;;;;746346;184;918379;-65
2020/12/12 10:17:35;;;;;;;27.87;15.40;;;;;;;;;;742541;183;919940;-65
2020/12/12 10:20:00;;;;;;;27.97;15.10;;;;;;;;;;746856;184;912063;-64
2020/12/12 10:22:26;;;;;;;30.50;16.30;;;;;;;;;;749025;184;918310;-64
2020/12/12 10:24:53;;;;;;;29.53;16.20;;;;;;;;;;743438;184;918690;-65
2020/12/12 10:27:18;;;;;;;27.87;15.70;;;;;;;;;;738860;184;918983;-65
2020/12/12 10:29:44;;;;;;;36.23;17.90;;;;;;;;;;742277;184;919203;-64
2020/12/12 10:32:10;;;;;;;29.40;15.57;;;;;;;;;;747776;184;919932;-65
2020/12/12 10:34:36;;;;;;;29.30;18.10;;;;;;;;;;744290;184;919052;-65
2020/12/12 10:37:02;;;;;;;27.30;15.43;;;;;;;;;;740656;184;918784;-64
2020/12/12 10:39:31;;;;;;;25.77;14.97;;;;;;;;;;749792;184;919007;-64
2020/12/12 10:41:54;;;;;;;22.10;13.80;;;;;;;;;;743807;184;919003;-66
2020/12/12 10:44:20;;;;;;;21.77;12.83;;;;;;;;;;742566;184;918995;-67
2020/12/12 10:46:45;;;;;;;23.63;13.80;;;;;;;;;;745559;184;919023;-64
2020/12/12 10:49:11;;;;;;;23.10;13.50;;;;;;;;;;744891;184;919587;-66
2020/12/12 10:51:45;;;;;;;26.53;14.20;;;;;;;;;;743160;184;919121;-64
2020/12/12 10:54:03;;;;;;;28.03;14.93;;;;;;;;;;743472;184;919234;-65
2020/12/12 10:56:29;;;;;;;21.60;11.87;;;;;;;;;;745717;185;919450;-65
2020/12/12 10:58:55;;;;;;;22.33;12.40;;;;;;;;;;740065;184;919223;-65
2020/12/12 11:01:21;;;;;;;24.60;13.97;;;;;;;;;;741356;184;918909;-64
2020/12/12 11:03:47;;;;;;;20.67;12.27;;;;;;;;;;741918;183;1878817;-65
2020/12/12 11:06:13;;;;;;;22.90;14.00;;;;;;;;;;744236;184;920026;-64
2020/12/12 11:08:39;;;;;;;19.77;12.60;;;;;;;;;;740282;184;942394;-64
2020/12/12 11:11:05;;;;;;;20.27;13.15;;;;;;;;;;746586;184;919685;-64
2020/12/12 11:13:30;;;;;;;23.00;12.60;;;;;;;;;;740657;184;918251;-65
2020/12/12 11:15:56;;;;;;;20.50;14.23;;;;;;;;;;739655;184;917873;-64
2020/12/12 11:18:23;;;;;;;20.70;13.02;;;;;;;;;;740828;184;919215;-65
2020/12/12 11:20:48;;;;;;;16.10;11.70;;;;;;;;;;746064;185;918853;-65
2020/12/12 11:23:14;;;;;;;21.93;13.50;;;;;;;;;;741177;184;1184947;-66
2020/12/12 11:25:40;;;;;;;21.05;12.05;;;;;;;;;;743055;184;920943;-65
2020/12/12 11:28:06;;;;;;;25.27;14.27;;;;;;;;;;747945;183;919296;-63
2020/12/12 11:30:33;;;;;;;19.07;13.17;;;;;;;;;;745313;184;1021162;-65
2020/12/12 11:32:58;;;;;;;19.90;11.83;;;;;;;;;;746511;184;918439;-64
2020/12/12 11:35:32;;;;;;;18.33;11.53;;;;;;;;;;746004;184;917945;-67
2020/12/12 11:38:07;;;;;;;20.90;12.50;;;;;;;;;;745044;184;824895;-65
2020/12/12 11:40:27;;;;;;;19.63;11.40;;;;;;;;;;738049;184;926713;-64
2020/12/12 11:43:14;;;;;;;23.83;12.10;;;;;;;;;;744208;184;918309;-65
2020/12/12 11:45:39;;;;;;;18.57;11.77;;;;;;;;;;745461;184;910189;-63
2020/12/12 11:47:46;;;;;;;18.10;12.20;;;;;;;;;;743243;184;929572;-65
2020/12/12 11:50:11;;;;;;;20.10;12.20;;;;;;;;;;740006;184;924895;-66
2020/12/12 11:52:37;;;;;;;17.57;13.13;;;;;;;;;;750874;184;920089;-65
2020/12/12 11:55:03;;;;;;;16.87;11.87;;;;;;;;;;740950;184;918262;-65
2020/12/12 11:57:29;;;;;;;21.97;11.67;;;;;;;;;;740483;184;918982;-65
2020/12/12 11:59:56;;;;;;;17.60;11.07;;;;;;;;;;738196;184;919395;-65
2020/12/12 12:02:22;;;;;;;16.73;10.70;;;;;;;;;;747687;184;918748;-66
2020/12/12 12:04:48;;;;;;;18.13;10.23;;;;;;;;;;740161;184;919410;-65
2020/12/12 12:07:14;;;;;;;16.77;9.77;;;;;;;;;;744670;184;919148;-64
2020/12/12 12:09:43;;;;;;;22.17;12.97;;;;;;;;;;745170;184;918805;-65
2020/12/12 12:12:05;;;;;;;20.67;11.27;;;;;;;;;;739857;184;928665;-65
2020/12/12 12:14:31;;;;;;;14.97;11.47;;;;;;;;;;744559;184;918505;-65
2020/12/12 12:16:57;;;;;;;24.40;14.37;;;;;;;;;;748241;184;918551;-65
2020/12/12 12:19:23;;;;;;;20.87;12.10;;;;;;;;;;744762;184;918946;-66
2020/12/12 12:21:49;;;;;;;25.33;14.87;;;;;;;;;;742055;184;919422;-66
2020/12/12 12:24:16;;;;;;;22.30;12.40;;;;;;;;;;736390;188;919273;-65
2020/12/12 12:26:42;;;;;;;24.67;13.23;;;;;;;;;;736489;187;918207;-65
2020/12/12 12:29:07;;;;;;;24.73;13.87;;;;;;;;;;744661;184;918731;-65
2020/12/12 12:31:33;;;;;;;29.00;14.35;;;;;;;;;;733322;184;1986749;-66
2020/12/12 12:33:59;;;;;;;27.47;15.00;;;;;;;;;;750259;184;919141;-64
2020/12/12 12:36:25;;;;;;;23.20;12.50;;;;;;;;;;739684;184;926091;-66
2020/12/12 12:38:51;;;;;;;25.23;12.87;;;;;;;;;;740398;184;919070;-65
2020/12/12 12:41:17;;;;;;;21.63;12.87;;;;;;;;;;749243;183;915638;-64
2020/12/12 12:43:43;;;;;;;17.73;10.70;;;;;;;;;;745134;184;920326;-64
2020/12/12 12:46:11;;;;;;;24.33;12.87;;;;;;;;;;752561;184;918730;-64
2020/12/12 12:48:37;;;;;;;17.70;10.93;;;;;;;;;;740069;184;914747;-65
2020/12/12 12:51:03;;;;;;;23.17;13.03;;;;;;;;;;750699;184;915113;-65
2020/12/12 12:53:28;;;;;;;20.07;12.30;;;;;;;;;;747117;184;918981;-65
2020/12/12 12:55:54;;;;;;;22.47;11.80;;;;;;;;;;741553;185;914913;-66
2020/12/12 12:58:21;;;;;;;20.70;12.50;;;;;;;;;;744803;184;918289;-63
2020/12/12 13:00:46;;;;;;;21.53;12.87;;;;;;;;;;740978;184;919068;-66
2020/12/12 13:03:12;;;;;;;24.27;13.50;;;;;;;;;;735079;184;921336;-65
2020/12/12 13:05:38;;;;;;;22.33;12.43;;;;;;;;;;747853;184;918778;-65
2020/12/12 13:08:04;;;;;;;25.70;13.73;;;;;;;;;;740739;184;918510;-65
2020/12/12 13:10:30;;;;;;;33.03;13.80;;;;;;;;;;742580;184;934890;-65
2020/12/12 13:12:56;;;;;;;33.37;11.90;;;;;;;;;;739178;184;918971;-65
2020/12/12 13:15:22;;;;;;;21.53;13.17;;;;;;;;;;747985;185;918632;-64
2020/12/12 13:17:48;;;;;;;20.90;13.17;;;;;;;;;;739171;184;1802222;-65
2020/12/12 13:20:22;;;;;;;29.10;16.57;;;;;;;;;;742561;184;925477;-63
2020/12/12 13:22:42;;;;;;;24.40;13.53;;;;;;;;;;745218;184;920171;-65
2020/12/12 13:25:08;;;;;;;28.43;14.57;;;;;;;;;;748001;184;919033;-65
2020/12/12 13:27:34;;;;;;;19.27;11.90;;;;;;;;;;739455;184;918949;-64
2020/12/12 13:32:41;;;;;;;20.50;12.00;;;;;;;;;;738650;188;918456;-65
2020/12/12 13:35:06;;;;;;;19.17;11.83;;;;;;;;;;742969;184;918745;-65
2020/12/12 13:37:32;;;;;;;24.73;11.67;;;;;;;;;;741422;184;928832;-66
2020/12/12 13:39:58;;;;;;;20.88;11.38;;;;;;;;;;742139;184;918170;-64
2020/12/12 13:42:24;;;;;;;19.37;12.80;;;;;;;;;;745131;185;919066;-66
2020/12/12 13:44:50;;;;;;;19.57;12.83;;;;;;;;;;743396;184;919465;-64
2020/12/12 13:47:16;;;;;;;20.30;12.30;;;;;;;;;;740103;184;920458;-66
2020/12/12 13:49:42;;;;;;;19.73;13.00;;;;;;;;;;747727;184;917335;-67
2020/12/12 13:52:08;;;;;;;19.77;11.90;;;;;;;;;;743950;184;919620;-66
2020/12/12 13:54:34;;;;;;;21.57;12.90;;;;;;;;;;740257;184;919130;-67
2020/12/12 13:57:00;;;;;;;21.63;12.67;;;;;;;;;;752365;184;919372;-65
2020/12/12 13:59:25;;;;;;;23.23;13.17;;;;;;;;;;747994;184;1121595;-64